createdAt,value
2023-03-21T00:00:43.616Z,10.00
2023-03-21T00:03:46.748Z,10.00
2023-03-21T00:06:48.813Z,10.00
2023-03-21T00:09:50.660Z,10.00
2023-03-21T00:12:55.344Z,8.40
2023-03-21T00:16:05.878Z,9.90
2023-03-21T00:19:14.386Z,9.90
2023-03-21T00:22:16.173Z,9.90
2023-03-21T00:25:18.049Z,9.90
2023-03-21T00:28:20.342Z,9.90
2023-03-21T00:31:23.840Z,9.80
2023-03-21T00:34:36.519Z,9.90
2023-03-21T00:37:45.424Z,9.90
2023-03-21T00:40:49.271Z,9.90
2023-03-21T00:43:51.964Z,10.00
2023-03-21T00:47:06.227Z,9.90
2023-03-21T00:50:10.160Z,9.90
2023-03-21T00:53:12.407Z,9.90
2023-03-21T00:56:14.134Z,10.00
2023-03-21T00:59:16.571Z,9.90
2023-03-21T01:02:22.912Z,9.90
2023-03-21T01:05:53.694Z,9.40
2023-03-21T01:08:55.663Z,9.90
2023-03-21T01:11:57.392Z,9.90
2023-03-21T01:14:59.144Z,9.90
2023-03-21T01:18:01.187Z,9.90
2023-03-21T01:21:08.567Z,9.90
2023-03-21T01:24:11.010Z,9.90
2023-03-21T01:27:12.727Z,9.90
2023-03-21T01:30:21.573Z,9.90
2023-03-21T01:33:25.015Z,9.90
2023-03-21T01:36:27.436Z,9.90
2023-03-21T01:39:35.273Z,10.00
2023-03-21T01:42:36.989Z,10.00
2023-03-21T01:46:01.161Z,9.90
2023-03-21T01:49:29.605Z,9.90
2023-03-21T01:52:41.849Z,9.80
2023-03-21T01:55:53.332Z,9.70
2023-03-21T01:59:18.231Z,9.70
2023-03-21T02:02:52.651Z,9.70
2023-03-21T02:06:36.650Z,9.70
2023-03-21T02:09:58.585Z,9.70
2023-03-21T02:13:09.425Z,9.70
2023-03-21T02:16:39.730Z,9.70
2023-03-21T02:19:53.437Z,9.80
2023-03-21T02:23:19.194Z,9.70
2023-03-21T02:26:28.497Z,9.70
2023-03-21T02:30:04.624Z,9.70
2023-03-21T02:33:40.062Z,9.70
2023-03-21T02:37:10.034Z,9.70
2023-03-21T02:40:15.400Z,9.70
2023-03-21T02:43:23.969Z,9.70
2023-03-21T02:47:04.634Z,9.70
2023-03-21T02:50:09.218Z,9.80
2023-03-21T02:53:15.659Z,9.80
2023-03-21T02:56:20.042Z,9.80
2023-03-21T02:59:28.972Z,9.80
2023-03-21T03:02:33.756Z,9.80
2023-03-21T03:05:40.924Z,9.80
2023-03-21T03:09:03.346Z,9.80
2023-03-21T03:12:21.379Z,9.80
2023-03-21T03:15:48.001Z,9.80
2023-03-21T03:19:01.257Z,9.80
2023-03-21T03:22:10.280Z,9.80
2023-03-21T03:25:23.109Z,9.80
2023-03-21T03:28:38.072Z,9.80
2023-03-21T03:31:57.391Z,9.80
2023-03-21T03:35:00.870Z,9.80
2023-03-21T03:38:08.091Z,9.80
2023-03-21T03:41:19.511Z,9.80
2023-03-21T03:44:29.908Z,9.80
2023-03-21T03:48:06.749Z,9.80
2023-03-21T03:51:47.589Z,9.80
2023-03-21T03:55:18.867Z,9.80
2023-03-21T03:58:36.040Z,9.80
2023-03-21T04:01:38.315Z,9.80
2023-03-21T04:04:41.851Z,9.70
2023-03-21T04:07:43.944Z,9.70
2023-03-21T04:10:45.701Z,9.70
2023-03-21T04:13:49.150Z,9.70
2023-03-21T04:16:56.877Z,9.70
2023-03-21T04:20:10.939Z,9.70
2023-03-21T04:23:13.891Z,9.70
2023-03-21T04:26:21.097Z,9.70
2023-03-21T04:29:45.725Z,9.70
2023-03-21T04:33:16.808Z,9.70
2023-03-21T04:36:38.819Z,9.70
2023-03-21T04:39:42.868Z,9.70
2023-03-21T04:42:45.844Z,9.70
2023-03-21T04:45:47.871Z,9.70
2023-03-21T04:48:49.768Z,9.60
2023-03-21T04:51:51.460Z,9.70
2023-03-21T04:54:55.235Z,9.70
2023-03-21T04:57:58.221Z,9.70
2023-03-21T05:01:02.375Z,10.50
2023-03-21T05:04:04.885Z,9.70
2023-03-21T05:07:08.986Z,9.70
2023-03-21T05:10:12.253Z,9.70
2023-03-21T05:13:16.003Z,9.70
2023-03-21T05:16:17.829Z,9.70
2023-03-21T05:19:23.514Z,9.60
2023-03-21T05:22:28.140Z,9.50
2023-03-21T05:25:38.215Z,9.50
2023-03-21T05:28:48.014Z,9.50
2023-03-21T05:31:50.223Z,9.50
2023-03-21T05:34:51.977Z,9.50
2023-03-21T05:37:57.381Z,9.50
2023-03-21T05:41:00.853Z,9.40
2023-03-21T05:44:03.081Z,9.40
2023-03-21T05:47:06.091Z,9.40
2023-03-21T05:50:18.458Z,9.40
2023-03-21T05:53:29.422Z,9.40
2023-03-21T05:56:31.653Z,9.50
2023-03-21T05:59:42.409Z,9.40
2023-03-21T06:02:45.073Z,9.50
2023-03-21T06:06:12.930Z,9.50
2023-03-21T06:09:22.736Z,9.40
2023-03-21T06:12:29.511Z,9.50
2023-03-21T06:15:42.924Z,9.40
2023-03-21T06:18:50.548Z,9.50
2023-03-21T06:22:12.290Z,9.50
2023-03-21T06:25:16.682Z,9.50
2023-03-21T06:28:18.605Z,9.50
2023-03-21T06:31:25.072Z,9.50
2023-03-21T06:34:30.855Z,9.60
2023-03-21T06:37:33.171Z,9.60
2023-03-21T06:40:35.574Z,9.50
2023-03-21T06:43:37.501Z,9.60
2023-03-21T06:46:39.303Z,9.60
2023-03-21T06:49:43.626Z,9.60
2023-03-21T06:52:47.170Z,9.60
2023-03-21T06:55:51.346Z,9.60
2023-03-21T06:58:54.632Z,9.50
2023-03-21T07:02:14.111Z,9.60
2023-03-21T07:05:31.053Z,9.60
2023-03-21T07:08:32.936Z,9.60
2023-03-21T07:11:36.665Z,9.60
2023-03-21T07:14:39.314Z,9.60
2023-03-21T07:17:41.048Z,9.60
2023-03-21T07:20:48.254Z,9.60
2023-03-21T07:23:50.363Z,9.70
2023-03-21T07:26:52.166Z,9.80
2023-03-21T07:29:54.023Z,9.70
2023-03-21T07:32:55.834Z,9.80
2023-03-21T07:35:57.987Z,9.80
2023-03-21T07:38:59.824Z,9.80
2023-03-21T07:42:02.738Z,9.90
2023-03-21T07:45:15.571Z,9.90
2023-03-21T07:48:19.033Z,10.00
2023-03-21T07:51:20.895Z,10.00
2023-03-21T07:54:23.584Z,10.00
2023-03-21T07:57:25.452Z,10.00
2023-03-21T08:00:27.385Z,10.10
2023-03-21T08:03:29.858Z,10.00
2023-03-21T08:06:32.414Z,10.10
2023-03-21T08:09:34.410Z,10.10
2023-03-21T08:12:36.154Z,10.10
2023-03-21T08:15:39.790Z,10.10
2023-03-21T08:18:42.692Z,10.20
2023-03-21T08:21:44.472Z,10.20
2023-03-21T08:24:46.179Z,10.20
2023-03-21T08:27:49.377Z,10.20
2023-03-21T08:30:51.520Z,10.30
2023-03-21T08:33:54.720Z,10.30
2023-03-21T08:36:56.555Z,10.30
2023-03-21T08:39:58.338Z,10.30
2023-03-21T08:43:00.413Z,10.30
2023-03-21T08:46:04.219Z,10.40
2023-03-21T08:49:06.222Z,10.50
2023-03-21T08:52:08.062Z,10.60
2023-03-21T08:55:11.511Z,10.60
2023-03-21T08:58:13.480Z,10.70
2023-03-21T09:01:15.707Z,10.80
2023-03-21T09:04:18.831Z,10.90
2023-03-21T09:07:22.111Z,10.90
2023-03-21T09:10:24.222Z,10.90
2023-03-21T09:13:26.572Z,11.00
2023-03-21T09:16:28.491Z,10.90
2023-03-21T09:19:31.811Z,10.90
2023-03-21T09:22:33.658Z,10.90
2023-03-21T09:25:36.759Z,10.80
2023-03-21T09:28:39.148Z,10.70
2023-03-21T09:31:43.981Z,10.70
2023-03-21T09:34:46.067Z,10.70
2023-03-21T09:37:49.060Z,10.70
2023-03-21T09:40:56.546Z,10.70
2023-03-21T09:44:24.655Z,10.70
2023-03-21T09:47:33.072Z,10.70
2023-03-21T09:50:39.643Z,10.70
2023-03-21T09:53:44.858Z,10.70
2023-03-21T09:56:47.591Z,10.60
2023-03-21T09:59:53.546Z,10.70
2023-03-21T10:03:07.327Z,10.70
2023-03-21T10:06:15.916Z,10.60
2023-03-21T10:09:24.443Z,10.60
2023-03-21T10:12:30.596Z,10.60
2023-03-21T10:15:32.582Z,10.50
2023-03-21T10:18:36.323Z,10.60
2023-03-21T10:21:59.735Z,10.60
2023-03-21T10:25:02.752Z,10.60
2023-03-21T10:28:07.400Z,10.70
2023-03-21T10:31:15.312Z,10.70
2023-03-21T10:34:39.952Z,10.70
2023-03-21T10:37:42.146Z,10.80
2023-03-21T10:40:44.294Z,10.70
2023-03-21T10:43:51.015Z,10.70
2023-03-21T10:46:55.099Z,10.80
2023-03-21T10:50:08.217Z,10.90
2023-03-21T10:53:20.852Z,11.00
2023-03-21T10:56:28.975Z,11.10
2023-03-21T10:59:38.719Z,11.20
2023-03-21T11:02:41.406Z,11.10
2023-03-21T11:05:43.429Z,11.20
2023-03-21T11:08:53.988Z,11.10
2023-03-21T11:12:02.405Z,11.10
2023-03-21T11:15:24.367Z,11.10
2023-03-21T11:18:31.099Z,11.00
2023-03-21T11:21:37.377Z,11.00
2023-03-21T11:24:39.668Z,11.00
2023-03-21T11:27:57.529Z,11.00
2023-03-21T11:31:02.732Z,11.00
2023-03-21T11:34:08.472Z,11.00
2023-03-21T11:37:19.481Z,11.00
2023-03-21T11:40:25.979Z,11.00
2023-03-21T11:43:39.188Z,11.20
2023-03-21T11:46:41.403Z,11.30
2023-03-21T11:49:43.194Z,11.50
2023-03-21T11:53:22.067Z,11.60
2023-03-21T11:56:34.290Z,11.90
2023-03-21T11:59:39.155Z,12.00
2023-03-21T12:02:57.811Z,12.10
2023-03-21T12:06:03.446Z,12.10
2023-03-21T12:09:08.290Z,12.00
2023-03-21T12:12:39.714Z,11.80
2023-03-21T12:16:02.182Z,11.80
2023-03-21T12:19:49.031Z,11.80
2023-03-21T12:22:53.909Z,11.90
2023-03-21T12:26:10.773Z,12.10
2023-03-21T12:29:33.804Z,12.30
2023-03-21T12:32:57.867Z,12.60
2023-03-21T12:36:27.774Z,12.40
2023-03-21T12:39:50.132Z,12.50
2023-03-21T12:43:22.873Z,12.40
2023-03-21T12:46:31.280Z,12.40
2023-03-21T12:49:42.412Z,12.60
2023-03-21T12:53:01.467Z,12.60
2023-03-21T12:56:07.840Z,12.30
2023-03-21T12:59:23.095Z,12.60
2023-03-21T13:02:39.075Z,12.60
2023-03-21T13:05:47.483Z,12.50
2023-03-21T13:09:05.848Z,12.50
2023-03-21T13:12:19.344Z,12.60
2023-03-21T13:15:48.074Z,12.60
2023-03-21T13:18:56.258Z,12.60
2023-03-21T13:22:03.756Z,12.60
2023-03-21T13:25:24.861Z,12.70
2023-03-21T13:28:29.770Z,12.70
2023-03-21T13:31:48.881Z,12.80
2023-03-21T13:34:58.002Z,12.80
2023-03-21T13:38:21.853Z,12.90
2023-03-21T13:41:47.176Z,13.10
2023-03-21T13:44:52.934Z,12.90
2023-03-21T13:47:58.646Z,12.80
2023-03-21T13:51:02.297Z,12.80
2023-03-21T13:54:14.007Z,12.90
2023-03-21T13:57:40.949Z,13.00
2023-03-21T14:00:42.672Z,13.10
2023-03-21T14:03:46.873Z,13.30
2023-03-21T14:07:01.857Z,13.20
2023-03-21T14:10:08.483Z,13.30
2023-03-21T14:13:16.492Z,13.40
2023-03-21T14:16:19.001Z,13.40
2023-03-21T14:19:20.891Z,13.30
2023-03-21T14:22:23.110Z,13.20
2023-03-21T14:25:37.148Z,13.10
2023-03-21T14:28:49.338Z,13.10
2023-03-21T14:31:51.190Z,13.20
2023-03-21T14:34:55.425Z,13.10
2023-03-21T14:38:01.183Z,13.30
2023-03-21T14:41:03.987Z,13.50
2023-03-21T14:44:28.740Z,13.70
2023-03-21T14:47:32.175Z,13.70
2023-03-21T14:50:47.939Z,13.70
2023-03-21T14:53:49.667Z,13.80
2023-03-21T14:56:56.570Z,13.70
2023-03-21T15:00:02.100Z,13.60
2023-03-21T15:03:04.490Z,13.40
2023-03-21T15:06:13.006Z,12.70
2023-03-21T15:09:16.350Z,13.00
2023-03-21T15:12:18.045Z,13.00
2023-03-21T15:15:20.984Z,13.10
2023-03-21T15:18:28.473Z,13.10
2023-03-21T15:21:36.123Z,13.20
2023-03-21T15:24:42.881Z,13.30
2023-03-21T15:27:44.861Z,13.10
2023-03-21T15:30:50.297Z,13.20
2023-03-21T15:33:53.827Z,13.50
2023-03-21T15:37:00.744Z,14.70
2023-03-21T15:40:25.533Z,16.10
2023-03-21T15:43:27.231Z,17.40
2023-03-21T15:46:43.176Z,18.60
2023-03-21T15:49:54.836Z,19.00
2023-03-21T15:53:00.212Z,18.80
2023-03-21T15:56:04.195Z,18.60
2023-03-21T15:59:06.465Z,18.60
2023-03-21T16:02:17.966Z,17.50
2023-03-21T16:05:30.577Z,17.40
2023-03-21T16:08:35.726Z,17.30
2023-03-21T16:11:43.359Z,16.70
2023-03-21T16:14:46.312Z,16.30
2023-03-21T16:18:16.123Z,15.20
2023-03-21T16:21:20.969Z,14.70
2023-03-21T16:24:22.678Z,14.40
2023-03-21T16:27:24.367Z,14.30
2023-03-21T16:30:26.182Z,14.10
2023-03-21T16:33:28.133Z,13.90
2023-03-21T16:36:33.447Z,13.90
2023-03-21T16:39:35.232Z,13.90
2023-03-21T16:42:36.962Z,13.90
2023-03-21T16:45:38.739Z,14.00
2023-03-21T16:48:41.656Z,14.40
2023-03-21T16:51:43.380Z,14.00
2023-03-21T16:54:45.184Z,13.60
2023-03-21T16:57:48.683Z,13.40
2023-03-21T17:00:50.397Z,13.40
2023-03-21T17:03:52.906Z,13.30
2023-03-21T17:06:55.407Z,13.30
2023-03-21T17:09:57.110Z,13.20
2023-03-21T17:12:59.309Z,13.20
2023-03-21T17:16:01.020Z,13.20
2023-03-21T17:19:04.257Z,13.10
2023-03-21T17:22:06.130Z,13.10
2023-03-21T17:25:07.923Z,13.20
2023-03-21T17:28:09.630Z,13.10
2023-03-21T17:31:16.227Z,13.00
2023-03-21T17:34:18.123Z,13.10
2023-03-21T17:37:20.402Z,13.00
2023-03-21T17:40:26.090Z,13.00
2023-03-21T17:43:27.907Z,12.90
2023-03-21T17:46:34.144Z,13.00
2023-03-21T17:49:35.896Z,13.00
2023-03-21T17:52:37.877Z,12.90
2023-03-21T17:55:40.008Z,12.90
2023-03-21T17:58:41.838Z,12.80
2023-03-21T18:01:43.758Z,12.80
2023-03-21T18:04:45.577Z,12.80
2023-03-21T18:08:17.526Z,12.80
2023-03-21T18:11:12.553Z,12.10
2023-03-21T18:14:18.092Z,12.60
2023-03-21T18:17:21.271Z,12.60
2023-03-21T18:20:44.658Z,12.60
2023-03-21T18:23:49.523Z,12.50
2023-03-21T18:26:51.716Z,12.30
2023-03-21T18:30:25.809Z,12.30
2023-03-21T18:33:16.524Z,12.20
2023-03-21T18:36:25.540Z,12.20
2023-03-21T18:39:29.447Z,12.20
2023-03-21T18:42:31.573Z,12.20
2023-03-21T18:45:33.608Z,12.20
2023-03-21T18:48:36.092Z,12.20
2023-03-21T18:51:37.776Z,12.10
2023-03-21T18:54:39.663Z,12.10
2023-03-21T18:57:42.382Z,12.10
2023-03-21T19:00:44.465Z,12.00
2023-03-21T19:04:11.611Z,12.00
2023-03-21T19:07:08.538Z,12.00
2023-03-21T19:10:20.391Z,12.10
2023-03-21T19:13:22.349Z,12.00
2023-03-21T19:16:28.380Z,11.90
2023-03-21T19:19:32.123Z,11.90
2023-03-21T19:22:33.851Z,11.80
2023-03-21T19:25:35.620Z,11.80
2023-03-21T19:28:37.336Z,11.70
2023-03-21T19:31:39.116Z,11.70
2023-03-21T19:34:40.835Z,11.70
2023-03-21T19:37:42.603Z,11.70
2023-03-21T19:40:44.362Z,11.70
2023-03-21T19:43:54.117Z,11.70
2023-03-21T19:46:56.407Z,11.80
2023-03-21T19:53:20.384Z,11.80
2023-03-21T19:56:26.284Z,11.70
2023-03-21T19:59:29.036Z,11.70
2023-03-21T20:02:35.982Z,11.70
2023-03-21T20:05:38.446Z,11.70
2023-03-21T20:12:03.280Z,11.50
2023-03-21T20:15:16.707Z,11.50
2023-03-21T20:18:20.584Z,11.40
2023-03-21T20:21:25.569Z,11.30
2023-03-21T20:24:28.106Z,11.30
2023-03-21T20:27:30.427Z,11.30
2023-03-21T20:30:32.430Z,11.20
2023-03-21T20:33:34.280Z,11.20
2023-03-21T20:36:40.402Z,11.10
2023-03-21T20:39:42.988Z,11.10
2023-03-21T20:42:48.549Z,11.10
2023-03-21T20:45:50.732Z,11.00
2023-03-21T20:48:52.453Z,10.90
2023-03-21T20:55:16.662Z,10.80
2023-03-21T20:58:40.223Z,10.70
2023-03-21T21:01:43.074Z,10.70
2023-03-21T21:05:11.824Z,10.80
2023-03-21T21:08:06.752Z,10.70
2023-03-21T21:12:02.380Z,10.70
2023-03-21T21:14:31.752Z,10.70
2023-03-21T21:18:01.921Z,10.70
2023-03-21T21:20:57.229Z,10.80
2023-03-21T21:23:59.151Z,10.80
2023-03-21T21:27:01.201Z,10.80
2023-03-21T21:30:03.239Z,10.80
2023-03-21T21:33:05.340Z,10.80
2023-03-21T21:36:08.732Z,10.80
2023-03-21T21:39:11.026Z,10.80
2023-03-21T21:42:12.742Z,10.70
2023-03-21T21:45:15.724Z,10.70
2023-03-21T21:48:17.710Z,10.70
2023-03-21T21:51:26.223Z,10.60
2023-03-21T21:54:30.004Z,10.50
2023-03-21T21:57:34.159Z,10.60
2023-03-21T22:00:37.153Z,10.60
2023-03-21T22:03:45.700Z,10.60
2023-03-21T22:06:47.594Z,10.60
2023-03-21T22:09:50.424Z,10.60
2023-03-21T22:12:52.215Z,10.50
2023-03-21T22:15:54.322Z,10.40
2023-03-21T22:18:56.068Z,10.40
2023-03-21T22:21:58.648Z,10.30
2023-03-21T22:25:00.339Z,10.40
2023-03-21T22:28:02.227Z,10.30
2023-03-21T22:31:13.120Z,10.30
2023-03-21T22:34:14.806Z,10.30
2023-03-21T22:37:16.523Z,10.40
2023-03-21T22:40:18.406Z,10.50
2023-03-21T22:43:20.175Z,10.40
2023-03-21T22:46:21.971Z,10.40
2023-03-21T22:49:23.666Z,10.50
2023-03-21T22:52:25.902Z,10.50
2023-03-21T22:55:27.726Z,10.60
2023-03-21T22:58:29.459Z,10.60
2023-03-21T23:01:31.548Z,10.50
2023-03-21T23:04:33.381Z,10.50
2023-03-21T23:07:35.315Z,10.50
2023-03-21T23:10:39.239Z,10.50
2023-03-21T23:13:41.437Z,10.40
2023-03-21T23:16:45.009Z,10.40
2023-03-21T23:19:46.721Z,10.40
2023-03-21T23:22:48.494Z,10.50
2023-03-21T23:25:50.478Z,10.40
2023-03-21T23:28:52.174Z,10.40
2023-03-21T23:31:53.997Z,10.40
2023-03-21T23:34:55.925Z,10.40
2023-03-21T23:37:57.868Z,10.30
2023-03-21T23:41:04.515Z,10.40
2023-03-21T23:44:06.505Z,10.30
2023-03-21T23:47:08.209Z,10.30
2023-03-21T23:50:10.888Z,10.30
2023-03-21T23:53:13.209Z,10.30
2023-03-21T23:56:21.055Z,10.20
2023-03-21T23:59:22.872Z,10.10
